createdAt,value
2018-09-06T00:01:44.876Z,-81
2018-09-06T00:04:15.016Z,-82
2018-09-06T00:06:44.429Z,-81
2018-09-06T00:09:13.903Z,-81
2018-09-06T00:11:43.283Z,-80
2018-09-06T00:14:12.736Z,-80
2018-09-06T00:16:42.225Z,-79
2018-09-06T00:19:11.686Z,-81
2018-09-06T00:21:41.036Z,-82
2018-09-06T00:24:10.453Z,-81
2018-09-06T00:26:39.755Z,-79
2018-09-06T00:29:09.188Z,-79
2018-09-06T00:31:38.279Z,-81
2018-09-06T00:34:07.458Z,-80
2018-09-06T00:36:36.762Z,-81
2018-09-06T00:39:07.897Z,-80
2018-09-06T00:41:37.457Z,-80
2018-09-06T00:44:07.213Z,-80
2018-09-06T00:46:36.600Z,-81
2018-09-06T00:49:06.125Z,-81
2018-09-06T00:51:35.487Z,-80
2018-09-06T00:54:04.876Z,-81
2018-09-06T00:56:34.233Z,-81
2018-09-06T00:59:03.706Z,-80
2018-09-06T01:01:32.875Z,-81
2018-09-06T01:04:02.216Z,-81
2018-09-06T01:06:31.636Z,-81
2018-09-06T01:09:00.700Z,-79
2018-09-06T01:11:30.162Z,-80
2018-09-06T01:13:59.622Z,-80
2018-09-06T01:16:28.808Z,-80
2018-09-06T01:18:58.155Z,-79
2018-09-06T01:21:27.570Z,-80
2018-09-06T01:23:57.008Z,-80
2018-09-06T01:26:26.474Z,-80
2018-09-06T01:28:55.889Z,-79
2018-09-06T01:31:25.317Z,-79
2018-09-06T01:33:55.356Z,-81
2018-09-06T01:36:59.332Z,-80
2018-09-06T01:39:28.704Z,-77
2018-09-06T01:41:58.097Z,-80
2018-09-06T01:44:27.168Z,-80
2018-09-06T01:46:56.311Z,-80
2018-09-06T01:49:25.640Z,-79
2018-09-06T01:51:55.137Z,-80
2018-09-06T01:54:24.404Z,-79
2018-09-06T01:59:37.876Z,-72
2018-09-06T02:02:07.707Z,-72
2018-09-06T02:04:37.171Z,-73
2018-09-06T02:07:07.060Z,-73
2018-09-06T02:09:36.480Z,-72
2018-09-06T02:12:05.658Z,-74
2018-09-06T02:14:34.857Z,-73
2018-09-06T02:17:03.809Z,-72
2018-09-06T02:19:33.060Z,-73
2018-09-06T02:22:02.282Z,-74
2018-09-06T02:24:31.583Z,-74
2018-09-06T02:27:00.816Z,-73
2018-09-06T02:29:30.007Z,-73
2018-09-06T02:31:59.246Z,-72
2018-09-06T02:34:28.498Z,-72
2018-09-06T02:36:57.761Z,-74
2018-09-06T02:39:31.068Z,-74
2018-09-06T02:42:00.069Z,-73
2018-09-06T02:44:29.309Z,-73
2018-09-06T02:46:58.517Z,-73
2018-09-06T02:49:33.157Z,-71
2018-09-06T02:52:02.422Z,-72
2018-09-06T02:54:31.701Z,-73
2018-09-06T02:57:00.959Z,-73
2018-09-06T02:59:30.145Z,-73
2018-09-06T03:01:59.418Z,-72
2018-09-06T03:04:28.462Z,-72
2018-09-06T03:06:57.758Z,-73
2018-09-06T03:09:26.703Z,-72
2018-09-06T03:11:59.507Z,-74
2018-09-06T03:14:28.678Z,-72
2018-09-06T03:16:57.953Z,-73
2018-09-06T03:19:27.546Z,-72
2018-09-06T03:21:56.796Z,-71
2018-09-06T03:24:25.828Z,-73
2018-09-06T03:26:55.070Z,-73
2018-09-06T03:29:24.273Z,-73
2018-09-06T03:31:53.568Z,-73
2018-09-06T03:34:22.870Z,-73
2018-09-06T03:36:52.092Z,-72
2018-09-06T03:39:21.063Z,-73
2018-09-06T03:41:50.318Z,-71
2018-09-06T03:44:19.426Z,-72
2018-09-06T03:46:48.672Z,-72
2018-09-06T03:49:17.892Z,-72
2018-09-06T03:51:46.966Z,-73
2018-09-06T03:54:16.249Z,-72
2018-09-06T03:56:45.227Z,-72
2018-09-06T03:59:14.245Z,-72
2018-09-06T04:01:43.499Z,-72
2018-09-06T04:04:12.490Z,-73
2018-09-06T04:06:41.724Z,-72
2018-09-06T04:09:11.598Z,-73
2018-09-06T04:11:40.822Z,-72
2018-09-06T04:14:10.122Z,-74
2018-09-06T04:16:39.141Z,-72
2018-09-06T04:19:08.494Z,-73
2018-09-06T04:21:37.779Z,-73
2018-09-06T04:24:07.439Z,-73
2018-09-06T04:26:36.723Z,-71
2018-09-06T04:29:06.055Z,-73
2018-09-06T04:31:35.298Z,-73
2018-09-06T04:34:04.301Z,-72
2018-09-06T04:36:33.538Z,-73
2018-09-06T04:39:02.861Z,-72
2018-09-06T04:41:32.090Z,-72
2018-09-06T04:44:01.096Z,-73
2018-09-06T04:46:30.351Z,-73
2018-09-06T04:48:59.605Z,-72
2018-09-06T04:51:28.572Z,-72
2018-09-06T04:53:58.013Z,-72
2018-09-06T04:56:27.027Z,-72
2018-09-06T04:58:56.304Z,-71
2018-09-06T05:01:25.335Z,-73
2018-09-06T05:03:54.536Z,-73
2018-09-06T05:06:23.761Z,-72
2018-09-06T05:08:52.982Z,-73
2018-09-06T05:11:22.215Z,-72
2018-09-06T05:13:51.192Z,-71
2018-09-06T05:16:20.436Z,-71
2018-09-06T05:18:49.404Z,-73
2018-09-06T05:21:18.629Z,-71
2018-09-06T05:23:47.882Z,-73
2018-09-06T05:26:17.105Z,-73
2018-09-06T05:28:46.333Z,-74
2018-09-06T05:31:15.552Z,-72
2018-09-06T05:33:44.825Z,-71
2018-09-06T05:36:14.196Z,-71
2018-09-06T05:38:43.312Z,-71
2018-09-06T05:41:12.580Z,-71
2018-09-06T05:43:41.878Z,-71
2018-09-06T05:46:11.460Z,-73
2018-09-06T05:48:40.757Z,-73
2018-09-06T05:51:10.038Z,-71
2018-09-06T05:53:38.993Z,-73
2018-09-06T05:56:08.205Z,-73
2018-09-06T05:58:37.555Z,-73
2018-09-06T06:01:07.068Z,-73
2018-09-06T06:03:36.097Z,-73
2018-09-06T06:06:05.130Z,-73
2018-09-06T06:08:44.464Z,-71
2018-09-06T06:11:13.465Z,-71
2018-09-06T06:13:42.788Z,-71
2018-09-06T06:16:12.660Z,-73
2018-09-06T06:18:41.977Z,-73
2018-09-06T06:21:11.461Z,-73
2018-09-06T06:23:40.734Z,-72
2018-09-06T06:26:09.984Z,-73
2018-09-06T06:28:39.000Z,-72
2018-09-06T06:31:08.321Z,-73
2018-09-06T06:33:37.952Z,-73
2018-09-06T06:36:07.648Z,-73
2018-09-06T06:38:36.745Z,-73
2018-09-06T06:41:06.037Z,-71
2018-09-06T06:43:35.277Z,-73
2018-09-06T06:46:04.527Z,-73
2018-09-06T06:48:33.771Z,-73
2018-09-06T06:51:03.067Z,-73
2018-09-06T06:53:32.335Z,-73
2018-09-06T06:56:01.594Z,-73
2018-09-06T06:58:30.832Z,-71
2018-09-06T07:01:00.100Z,-73
2018-09-06T07:03:29.112Z,-72
2018-09-06T07:05:58.401Z,-71
2018-09-06T07:08:27.673Z,-73
2018-09-06T07:10:56.908Z,-73
2018-09-06T07:13:26.141Z,-72
2018-09-06T07:15:55.354Z,-73
2018-09-06T07:18:24.678Z,-73
2018-09-06T07:20:53.639Z,-73
2018-09-06T07:23:22.875Z,-76
2018-09-06T07:25:52.090Z,-74
2018-09-06T07:28:21.092Z,-73
2018-09-06T07:30:50.309Z,-73
2018-09-06T07:33:19.302Z,-73
2018-09-06T07:35:48.505Z,-73
2018-09-06T07:38:17.731Z,-74
2018-09-06T07:40:46.997Z,-73
2018-09-06T07:43:16.072Z,-72
2018-09-06T07:45:45.341Z,-73
2018-09-06T07:48:14.590Z,-73
2018-09-06T07:50:43.817Z,-73
2018-09-06T07:53:13.052Z,-72
2018-09-06T07:55:42.041Z,-72
2018-09-06T07:58:11.229Z,-74
2018-09-06T08:00:41.431Z,-76
2018-09-06T08:03:11.607Z,-72
2018-09-06T08:05:41.496Z,-72
2018-09-06T08:08:10.730Z,-73
2018-09-06T08:10:39.991Z,-73
2018-09-06T08:13:09.295Z,-74
2018-09-06T08:15:38.544Z,-74
2018-09-06T08:18:07.927Z,-74
2018-09-06T08:20:37.139Z,-72
2018-09-06T08:23:06.673Z,-73
2018-09-06T08:25:35.906Z,-74
2018-09-06T08:28:05.207Z,-72
2018-09-06T08:30:34.552Z,-74
2018-09-06T08:33:03.707Z,-74
2018-09-06T08:35:32.939Z,-74
2018-09-06T08:38:02.231Z,-74
2018-09-06T08:40:31.534Z,-72
2018-09-06T08:43:00.777Z,-72
2018-09-06T08:45:30.133Z,-74
2018-09-06T08:47:59.378Z,-73
2018-09-06T08:50:28.629Z,-72
2018-09-06T08:52:58.160Z,-73
2018-09-06T08:55:27.374Z,-74
2018-09-06T08:57:56.298Z,-74
2018-09-06T09:00:25.517Z,-74
2018-09-06T09:02:54.613Z,-74
2018-09-06T09:05:23.915Z,-74
2018-09-06T09:07:53.121Z,-74
2018-09-06T09:10:22.330Z,-74
2018-09-06T09:12:51.650Z,-72
2018-09-06T09:15:20.676Z,-73
2018-09-06T09:17:49.958Z,-74
2018-09-06T09:20:19.162Z,-74
2018-09-06T09:22:48.190Z,-73
2018-09-06T09:25:17.451Z,-74
2018-09-06T09:27:46.437Z,-74
2018-09-06T09:30:16.005Z,-73
2018-09-06T09:32:45.307Z,-72
2018-09-06T09:35:14.553Z,-73
2018-09-06T09:37:43.776Z,-75
2018-09-06T09:40:13.122Z,-74
2018-09-06T09:42:42.341Z,-73
2018-09-06T09:45:11.309Z,-74
2018-09-06T09:47:40.539Z,-73
2018-09-06T09:50:09.803Z,-74
2018-09-06T09:52:39.075Z,-73
2018-09-06T09:55:08.093Z,-74
2018-09-06T09:57:37.678Z,-72
2018-09-06T10:00:07.197Z,-73
2018-09-06T10:02:41.737Z,-74
2018-09-06T10:05:16.207Z,-75
2018-09-06T10:07:50.526Z,-74
2018-09-06T10:10:19.790Z,-74
2018-09-06T10:12:49.059Z,-73
2018-09-06T10:15:18.327Z,-75
2018-09-06T10:17:47.587Z,-74
2018-09-06T10:20:16.877Z,-74
2018-09-06T10:22:45.857Z,-75
2018-09-06T10:25:15.100Z,-73
2018-09-06T10:27:44.285Z,-74
2018-09-06T10:30:13.541Z,-73
2018-09-06T10:32:42.773Z,-74
2018-09-06T10:35:12.050Z,-73
2018-09-06T10:37:41.316Z,-75
2018-09-06T10:40:10.282Z,-74
2018-09-06T10:42:39.531Z,-75
2018-09-06T10:45:08.713Z,-74
2018-09-06T10:47:38.162Z,-74
2018-09-06T10:50:07.840Z,-74
2018-09-06T10:52:37.289Z,-73
2018-09-06T10:55:06.410Z,-73
2018-09-06T10:57:36.465Z,-74
2018-09-06T11:00:09.218Z,-74
2018-09-06T11:02:38.548Z,-74
2018-09-06T11:05:07.858Z,-74
2018-09-06T11:07:37.119Z,-74
2018-09-06T11:10:06.770Z,-73
2018-09-06T11:12:36.053Z,-73
2018-09-06T11:15:05.416Z,-73
2018-09-06T11:17:34.597Z,-75
2018-09-06T11:20:03.819Z,-74
2018-09-06T11:22:33.408Z,-74
2018-09-06T11:25:02.569Z,-73
2018-09-06T11:27:31.825Z,-74
2018-09-06T11:30:01.103Z,-73
2018-09-06T11:32:30.391Z,-73
2018-09-06T11:34:59.379Z,-74
2018-09-06T11:37:28.647Z,-75
2018-09-06T11:39:57.767Z,-73
2018-09-06T11:42:26.986Z,-74
2018-09-06T11:44:56.156Z,-74
2018-09-06T11:47:25.188Z,-74
2018-09-06T11:49:54.370Z,-74
2018-09-06T11:52:23.671Z,-75
2018-09-06T11:54:52.704Z,-73
2018-09-06T11:57:22.080Z,-74
2018-09-06T11:59:51.346Z,-73
2018-09-06T12:02:20.989Z,-73
2018-09-06T12:04:50.221Z,-74
2018-09-06T12:07:19.421Z,-75
2018-09-06T12:09:48.685Z,-73
2018-09-06T12:12:17.635Z,-75
2018-09-06T12:14:46.882Z,-75
2018-09-06T12:17:16.130Z,-74
2018-09-06T12:19:45.441Z,-73
2018-09-06T12:22:14.693Z,-75
2018-09-06T12:24:43.943Z,-73
2018-09-06T12:27:13.301Z,-75
2018-09-06T12:29:42.531Z,-75
2018-09-06T12:32:11.759Z,-75
2018-09-06T12:34:41.071Z,-73
2018-09-06T12:37:12.518Z,-74
2018-09-06T12:39:43.514Z,-74
2018-09-06T12:42:12.839Z,-74
2018-09-06T12:44:42.739Z,-74
2018-09-06T12:47:12.186Z,-75
2018-09-06T12:49:41.601Z,-73
2018-09-06T12:52:10.842Z,-74
2018-09-06T12:54:40.078Z,-75
2018-09-06T12:57:09.319Z,-74
2018-09-06T12:59:38.517Z,-75
2018-09-06T13:02:07.814Z,-75
2018-09-06T13:04:36.769Z,-74
2018-09-06T13:07:05.811Z,-74
2018-09-06T13:09:35.100Z,-74
2018-09-06T13:12:04.415Z,-73
2018-09-06T13:14:33.652Z,-73
2018-09-06T13:17:03.023Z,-73
2018-09-06T13:19:32.258Z,-74
2018-09-06T13:22:01.221Z,-73
2018-09-06T13:24:30.211Z,-73
2018-09-06T13:26:59.401Z,-74
2018-09-06T13:29:28.451Z,-74
2018-09-06T13:31:57.707Z,-73
2018-09-06T13:34:26.926Z,-75
2018-09-06T13:36:56.159Z,-75
2018-09-06T13:39:25.332Z,-75
2018-09-06T13:41:54.558Z,-75
2018-09-06T13:44:23.793Z,-74
2018-09-06T13:46:53.123Z,-73
2018-09-06T13:49:22.458Z,-74
2018-09-06T13:51:51.705Z,-73
2018-09-06T13:54:21.105Z,-73
2018-09-06T13:56:50.301Z,-73
2018-09-06T13:59:19.618Z,-73
2018-09-06T14:01:48.921Z,-73
2018-09-06T14:04:18.244Z,-73
2018-09-06T14:06:47.510Z,-73
2018-09-06T14:09:16.771Z,-74
2018-09-06T14:11:46.046Z,-73
2018-09-06T14:14:15.165Z,-73
2018-09-06T14:16:44.540Z,-73
2018-09-06T14:19:13.790Z,-73
2018-09-06T14:21:42.818Z,-74
2018-09-06T14:24:12.157Z,-73
2018-09-06T14:26:41.391Z,-74
2018-09-06T14:29:10.665Z,-74
2018-09-06T14:31:40.612Z,-74
2018-09-06T14:34:09.700Z,-74
2018-09-06T14:36:38.962Z,-75
2018-09-06T14:39:09.065Z,-75
2018-09-06T14:41:38.303Z,-74
2018-09-06T14:44:07.812Z,-74
2018-09-06T14:46:36.836Z,-74
2018-09-06T14:49:06.040Z,-74
2018-09-06T14:51:35.305Z,-74
2018-09-06T14:54:04.547Z,-74
2018-09-06T14:56:33.847Z,-73
2018-09-06T14:59:03.058Z,-74
2018-09-06T15:01:32.426Z,-74
2018-09-06T15:04:01.600Z,-74
2018-09-06T15:06:30.841Z,-74
2018-09-06T15:09:00.082Z,-73
2018-09-06T15:11:29.110Z,-74
2018-09-06T15:13:58.390Z,-75
2018-09-06T15:16:27.563Z,-74
2018-09-06T15:18:56.788Z,-75
2018-09-06T15:21:26.015Z,-74
2018-09-06T15:23:55.204Z,-75
2018-09-06T15:26:24.482Z,-74
2018-09-06T15:28:53.828Z,-75
2018-09-06T15:31:23.134Z,-75
2018-09-06T15:33:52.162Z,-75
2018-09-06T15:36:21.467Z,-74
2018-09-06T15:38:50.715Z,-74
2018-09-06T15:41:19.735Z,-74
2018-09-06T15:43:48.982Z,-73
2018-09-06T15:46:17.927Z,-76
2018-09-06T15:48:46.955Z,-73
2018-09-06T15:51:15.956Z,-74
2018-09-06T15:53:45.018Z,-74
2018-09-06T15:56:14.244Z,-76
2018-09-06T15:58:43.498Z,-75
2018-09-06T16:01:12.763Z,-74
2018-09-06T16:03:41.745Z,-74
2018-09-06T16:06:10.951Z,-76
2018-09-06T16:08:39.901Z,-74
2018-09-06T16:11:09.154Z,-75
2018-09-06T16:13:38.383Z,-76
2018-09-06T16:16:07.573Z,-73
2018-09-06T16:18:36.821Z,-73
2018-09-06T16:21:06.041Z,-74
2018-09-06T16:23:35.305Z,-74
2018-09-06T16:26:04.598Z,-75
2018-09-06T16:28:34.215Z,-75
2018-09-06T16:31:03.529Z,-73
2018-09-06T16:33:32.878Z,-75
2018-09-06T16:36:02.146Z,-75
2018-09-06T16:38:31.136Z,-74
2018-09-06T16:41:00.156Z,-74
2018-09-06T16:43:29.164Z,-73
2018-09-06T16:45:58.726Z,-74
2018-09-06T16:48:27.874Z,-74
2018-09-06T16:50:56.877Z,-74
2018-09-06T16:53:26.215Z,-74
2018-09-06T16:55:55.445Z,-74
2018-09-06T16:58:24.701Z,-74
2018-09-06T17:00:54.074Z,-73
2018-09-06T17:03:23.107Z,-76
2018-09-06T17:05:52.059Z,-74
2018-09-06T17:08:21.268Z,-74
2018-09-06T17:10:50.522Z,-76
2018-09-06T17:13:19.790Z,-74
2018-09-06T17:15:49.059Z,-75
2018-09-06T17:18:18.277Z,-75
2018-09-06T17:20:47.330Z,-74
2018-09-06T17:23:16.574Z,-74
2018-09-06T17:25:45.868Z,-74
2018-09-06T17:28:15.151Z,-75
2018-09-06T17:30:44.154Z,-80
2018-09-06T17:33:13.602Z,-82
2018-09-06T17:35:42.920Z,-80
2018-09-06T17:38:12.285Z,-80
2018-09-06T17:40:41.881Z,-82
2018-09-06T17:43:11.271Z,-82
2018-09-06T17:45:40.880Z,-82
2018-09-06T17:48:10.237Z,-81
2018-09-06T17:50:39.396Z,-79
2018-09-06T17:53:08.800Z,-81
2018-09-06T17:55:38.180Z,-81
2018-09-06T17:58:07.756Z,-81
2018-09-06T18:00:45.381Z,-79
2018-09-06T18:03:15.633Z,-81
2018-09-06T18:05:45.304Z,-79
2018-09-06T18:08:16.488Z,-81
2018-09-06T18:10:55.305Z,-81
2018-09-06T18:13:28.543Z,-81
2018-09-06T18:15:57.580Z,-81
2018-09-06T18:18:26.990Z,-81
2018-09-06T18:20:56.271Z,-81
2018-09-06T18:23:25.888Z,-82
2018-09-06T18:25:55.017Z,-81
2018-09-06T18:28:24.513Z,-81
2018-09-06T18:30:53.811Z,-80
2018-09-06T18:33:23.194Z,-81
2018-09-06T18:35:52.316Z,-81
2018-09-06T18:38:21.766Z,-81
2018-09-06T18:40:51.228Z,-80
2018-09-06T18:43:20.591Z,-82
2018-09-06T18:45:49.656Z,-80
2018-09-06T18:48:19.765Z,-81
2018-09-06T18:50:49.020Z,-81
2018-09-06T18:53:18.019Z,-81
2018-09-06T18:55:47.473Z,-81
2018-09-06T18:58:16.575Z,-80
2018-09-06T19:00:46.728Z,-79
2018-09-06T19:03:16.233Z,-82
2018-09-06T19:05:45.493Z,-80
2018-09-06T19:08:14.873Z,-79
2018-09-06T19:10:43.996Z,-81
2018-09-06T19:13:17.091Z,-81
2018-09-06T19:15:47.597Z,-79
2018-09-06T19:18:17.126Z,-81
2018-09-06T19:20:46.424Z,-82
2018-09-06T19:23:16.424Z,-80
2018-09-06T19:25:45.605Z,-82
2018-09-06T19:28:14.954Z,-81
2018-09-06T19:30:44.313Z,-82
2018-09-06T19:33:13.583Z,-80
2018-09-06T19:35:42.657Z,-81
2018-09-06T19:38:12.001Z,-81
2018-09-06T19:40:41.383Z,-81
2018-09-06T19:43:10.810Z,-80
2018-09-06T19:45:40.291Z,-80
2018-09-06T19:48:09.688Z,-82
2018-09-06T19:50:39.590Z,-81
2018-09-06T19:53:08.953Z,-82
2018-09-06T19:55:38.328Z,-80
2018-09-06T19:58:07.593Z,-81
2018-09-06T20:00:36.936Z,-82
2018-09-06T20:03:06.289Z,-82
2018-09-06T20:05:35.609Z,-80
2018-09-06T20:08:04.998Z,-82
2018-09-06T20:10:34.257Z,-82
2018-09-06T20:13:03.559Z,-81
2018-09-06T20:15:33.113Z,-82
2018-09-06T20:18:02.567Z,-82
2018-09-06T20:20:32.208Z,-82
2018-09-06T20:23:01.805Z,-82
2018-09-06T20:25:31.022Z,-79
2018-09-06T20:28:00.191Z,-81
2018-09-06T20:30:29.519Z,-82
2018-09-06T20:32:58.746Z,-82
2018-09-06T20:35:28.019Z,-82
2018-09-06T20:37:57.104Z,-81
2018-09-06T20:40:26.357Z,-82
2018-09-06T20:46:06.125Z,-82
2018-09-06T20:48:35.447Z,-81
2018-09-06T20:51:04.820Z,-81
2018-09-06T20:53:45.573Z,-82
2018-09-06T20:56:14.821Z,-83
2018-09-06T20:58:43.892Z,-83
2018-09-06T21:01:12.935Z,-83
2018-09-06T21:03:42.234Z,-80
2018-09-06T21:06:11.589Z,-81
2018-09-06T21:08:40.846Z,-83
2018-09-06T21:11:10.149Z,-82
2018-09-06T21:13:39.576Z,-80
2018-09-06T21:16:08.679Z,-81
2018-09-06T21:18:38.008Z,-80
2018-09-06T21:21:07.299Z,-81
2018-09-06T21:23:37.736Z,-81
2018-09-06T21:26:07.100Z,-80
2018-09-06T21:28:36.492Z,-81
2018-09-06T21:31:05.740Z,-80
2018-09-06T21:33:34.784Z,-80
2018-09-06T21:36:04.090Z,-80
2018-09-06T21:38:33.388Z,-82
2018-09-06T21:41:02.759Z,-83
2018-09-06T21:43:31.775Z,-81
2018-09-06T21:46:01.046Z,-83
2018-09-06T21:48:30.085Z,-83
2018-09-06T21:50:59.473Z,-83
2018-09-06T21:53:28.751Z,-82
2018-09-06T21:55:57.866Z,-80
2018-09-06T21:58:27.204Z,-82
2018-09-06T22:00:56.677Z,-81
2018-09-06T22:03:31.275Z,-80
2018-09-06T22:06:00.726Z,-80
2018-09-06T22:08:30.005Z,-81
2018-09-06T22:10:59.316Z,-81
2018-09-06T22:13:28.409Z,-82
2018-09-06T22:15:57.670Z,-82
2018-09-06T22:18:26.961Z,-81
2018-09-06T22:20:56.302Z,-82
2018-09-06T22:23:25.618Z,-81
2018-09-06T22:25:54.885Z,-80
2018-09-06T22:28:23.847Z,-82
2018-09-06T22:30:53.114Z,-82
2018-09-06T22:33:22.321Z,-82
2018-09-06T22:35:51.620Z,-81
2018-09-06T22:38:20.876Z,-83
2018-09-06T22:40:50.174Z,-80
2018-09-06T22:43:19.569Z,-83
2018-09-06T22:45:48.732Z,-82
2018-09-06T22:48:17.843Z,-80
2018-09-06T22:50:47.169Z,-80
2018-09-06T22:53:16.969Z,-80
2018-09-06T22:55:46.347Z,-81
2018-09-06T22:58:16.272Z,-82
2018-09-06T23:00:45.598Z,-82
2018-09-06T23:03:19.896Z,-81
2018-09-06T23:05:48.942Z,-82
2018-09-06T23:08:18.325Z,-80
2018-09-06T23:10:47.688Z,-81
2018-09-06T23:13:17.236Z,-80
2018-09-06T23:15:46.533Z,-82
2018-09-06T23:18:15.893Z,-82
2018-09-06T23:20:45.221Z,-80
2018-09-06T23:23:14.552Z,-81
2018-09-06T23:25:43.544Z,-82
2018-09-06T23:28:12.684Z,-81
2018-09-06T23:30:42.161Z,-81
2018-09-06T23:33:11.544Z,-82
2018-09-06T23:35:44.374Z,-82
2018-09-06T23:38:16.133Z,-81
2018-09-06T23:40:50.382Z,-82
2018-09-06T23:43:20.360Z,-82
2018-09-06T23:45:52.824Z,-81
2018-09-06T23:48:24.646Z,-82
2018-09-06T23:50:54.483Z,-82
2018-09-06T23:53:24.304Z,-82
2018-09-06T23:55:53.834Z,-80
2018-09-06T23:58:22.841Z,-82
